createdAt,value
2023-02-19T00:01:41.028Z,95.00
2023-02-19T00:04:10.724Z,94.80
2023-02-19T00:06:38.148Z,94.90
2023-02-19T00:09:05.592Z,95.00
2023-02-19T00:11:34.558Z,95.00
2023-02-19T00:14:03.369Z,95.10
2023-02-19T00:16:36.301Z,95.00
2023-02-19T00:19:06.127Z,94.50
2023-02-19T00:21:33.782Z,94.70
2023-02-19T00:24:03.406Z,94.80
2023-02-19T00:26:31.426Z,94.50
2023-02-19T00:29:00.362Z,94.30
2023-02-19T00:31:29.518Z,94.50
2023-02-19T00:34:00.455Z,94.80
2023-02-19T00:36:28.459Z,95.30
2023-02-19T00:38:55.656Z,95.30
2023-02-19T00:41:26.583Z,95.20
2023-02-19T00:43:56.451Z,94.90
2023-02-19T00:46:28.992Z,94.50
2023-02-19T00:48:57.216Z,94.60
2023-02-19T00:51:27.267Z,94.50
2023-02-19T00:53:54.844Z,94.70
2023-02-19T00:56:22.352Z,94.90
2023-02-19T00:58:52.454Z,95.20
2023-02-19T01:01:20.782Z,95.30
2023-02-19T01:03:48.317Z,95.20
2023-02-19T01:06:17.852Z,95.10
2023-02-19T01:08:45.397Z,95.20
2023-02-19T01:11:13.553Z,95.10
2023-02-19T01:13:42.624Z,94.80
2023-02-19T01:16:14.101Z,94.70
2023-02-19T01:18:41.528Z,94.90
2023-02-19T01:21:12.210Z,95.20
2023-02-19T01:23:39.966Z,94.70
2023-02-19T01:26:09.654Z,94.80
2023-02-19T01:28:36.894Z,94.90
2023-02-19T01:31:05.891Z,95.10
2023-02-19T01:33:34.074Z,95.00
2023-02-19T01:36:04.680Z,94.90
2023-02-19T01:38:32.049Z,95.00
2023-02-19T01:41:04.767Z,94.70
2023-02-19T01:43:33.591Z,94.60
2023-02-19T01:46:01.659Z,94.60
2023-02-19T01:48:37.130Z,94.60
2023-02-19T01:51:13.997Z,94.80
2023-02-19T01:53:45.947Z,94.90
2023-02-19T01:56:16.120Z,94.90
2023-02-19T01:58:43.324Z,95.10
2023-02-19T02:01:10.927Z,95.10
2023-02-19T02:03:40.766Z,94.70
2023-02-19T02:06:25.105Z,94.90
2023-02-19T02:09:14.510Z,95.10
2023-02-19T02:11:49.275Z,95.30
2023-02-19T02:14:19.250Z,95.30
2023-02-19T02:17:00.259Z,95.20
2023-02-19T02:20:05.363Z,95.50
2023-02-19T02:22:38.462Z,95.30
2023-02-19T02:25:29.411Z,95.30
2023-02-19T02:28:02.234Z,95.40
2023-02-19T02:30:32.760Z,95.70
2023-02-19T02:33:31.658Z,95.50
2023-02-19T02:36:07.356Z,95.00
2023-02-19T02:38:39.313Z,95.00
2023-02-19T02:41:07.351Z,94.70
2023-02-19T02:43:34.412Z,94.90
2023-02-19T02:46:01.614Z,95.10
2023-02-19T02:48:54.149Z,95.10
2023-02-19T02:51:35.767Z,95.20
2023-02-19T02:54:55.430Z,95.30
2023-02-19T02:57:22.385Z,95.40
2023-02-19T02:59:49.804Z,95.10
2023-02-19T03:02:23.105Z,95.30
2023-02-19T03:05:49.880Z,95.20
2023-02-19T03:08:27.410Z,94.90
2023-02-19T03:11:24.561Z,94.70
2023-02-19T03:14:18.190Z,94.90
2023-02-19T03:17:07.040Z,95.30
2023-02-19T03:19:38.007Z,95.70
2023-02-19T03:22:16.561Z,95.40
2023-02-19T03:25:14.235Z,95.20
2023-02-19T03:27:44.339Z,95.30
2023-02-19T03:30:16.704Z,95.60
2023-02-19T03:32:58.134Z,95.80
2023-02-19T03:35:31.725Z,95.80
2023-02-19T03:38:08.736Z,95.40
2023-02-19T03:40:56.563Z,95.10
2023-02-19T03:43:58.047Z,95.10
2023-02-19T03:46:44.286Z,95.30
2023-02-19T03:49:18.525Z,95.00
2023-02-19T03:52:01.977Z,94.80
2023-02-19T03:54:54.604Z,95.30
2023-02-19T03:57:28.514Z,95.60
2023-02-19T03:59:59.166Z,95.40
2023-02-19T04:02:47.813Z,95.10
2023-02-19T04:05:17.254Z,95.40
2023-02-19T04:07:49.017Z,95.40
2023-02-19T04:10:19.092Z,95.20
2023-02-19T04:12:53.327Z,95.20
2023-02-19T04:15:25.409Z,95.20
2023-02-19T04:18:07.094Z,95.30
2023-02-19T04:20:42.532Z,95.00
2023-02-19T04:23:10.046Z,94.90
2023-02-19T04:25:40.128Z,95.10
2023-02-19T04:28:09.127Z,95.00
2023-02-19T04:30:36.242Z,95.10
2023-02-19T04:33:03.340Z,95.50
2023-02-19T04:35:30.376Z,95.30
2023-02-19T04:37:57.291Z,95.40
2023-02-19T04:40:24.286Z,95.30
2023-02-19T04:42:51.282Z,95.20
2023-02-19T04:45:18.443Z,95.20
2023-02-19T04:47:45.644Z,94.90
2023-02-19T04:50:13.242Z,95.00
2023-02-19T04:52:40.258Z,94.70
2023-02-19T04:55:08.174Z,94.70
2023-02-19T04:57:35.927Z,94.90
2023-02-19T05:00:04.687Z,95.10
2023-02-19T05:02:31.805Z,94.90
2023-02-19T05:04:58.842Z,95.20
2023-02-19T05:07:25.813Z,95.30
2023-02-19T05:09:52.888Z,95.10
2023-02-19T05:12:20.048Z,95.10
2023-02-19T05:14:47.159Z,95.30
2023-02-19T05:17:14.200Z,95.40
2023-02-19T05:19:41.320Z,95.50
2023-02-19T05:22:08.494Z,95.50
2023-02-19T05:24:35.570Z,95.40
2023-02-19T05:27:02.436Z,94.90
2023-02-19T05:29:33.763Z,95.00
2023-02-19T05:32:00.711Z,95.40
2023-02-19T05:34:27.814Z,95.50
2023-02-19T05:36:54.691Z,95.50
2023-02-19T05:39:21.688Z,95.20
2023-02-19T05:41:48.685Z,95.40
2023-02-19T05:44:15.722Z,95.60
2023-02-19T05:46:42.776Z,96.00
2023-02-19T05:49:09.880Z,95.90
2023-02-19T05:51:40.041Z,95.60
2023-02-19T05:54:07.328Z,95.60
2023-02-19T05:56:36.856Z,95.40
2023-02-19T05:59:25.061Z,95.60
2023-02-19T06:01:54.179Z,95.50
2023-02-19T06:04:21.642Z,95.50
2023-02-19T06:06:49.166Z,95.50
2023-02-19T06:09:16.720Z,95.20
2023-02-19T06:11:44.319Z,95.30
2023-02-19T06:14:14.090Z,95.30
2023-02-19T06:16:41.343Z,95.20
2023-02-19T06:19:08.646Z,95.00
2023-02-19T06:21:38.640Z,95.00
2023-02-19T06:24:07.777Z,95.10
2023-02-19T06:26:35.160Z,95.30
2023-02-19T06:29:02.248Z,95.20
2023-02-19T06:31:29.391Z,95.00
2023-02-19T06:33:56.571Z,95.30
2023-02-19T06:36:24.136Z,95.80
2023-02-19T06:38:51.522Z,96.00
2023-02-19T06:41:19.308Z,95.60
2023-02-19T06:43:46.855Z,95.60
2023-02-19T06:46:14.752Z,95.90
2023-02-19T06:48:43.530Z,96.10
2023-02-19T06:51:15.526Z,96.10
2023-02-19T06:53:42.623Z,96.30
2023-02-19T06:56:22.376Z,96.00
2023-02-19T06:58:49.680Z,96.00
2023-02-19T07:01:17.072Z,95.80
2023-02-19T07:03:44.446Z,95.90
2023-02-19T07:06:11.486Z,95.60
2023-02-19T07:08:38.456Z,95.80
2023-02-19T07:11:05.573Z,95.90
2023-02-19T07:13:32.728Z,95.60
2023-02-19T07:16:02.462Z,95.90
2023-02-19T07:18:40.045Z,95.40
2023-02-19T07:21:10.301Z,95.50
2023-02-19T07:23:46.803Z,95.50
2023-02-19T07:26:21.407Z,95.20
2023-02-19T07:28:50.458Z,95.00
2023-02-19T07:31:20.135Z,94.70
2023-02-19T07:33:47.854Z,94.80
2023-02-19T07:36:17.063Z,94.90
2023-02-19T07:38:45.065Z,94.80
2023-02-19T07:41:12.720Z,94.00
2023-02-19T07:43:40.336Z,94.10
2023-02-19T07:46:12.907Z,94.30
2023-02-19T07:48:41.491Z,94.40
2023-02-19T07:51:12.140Z,94.30
2023-02-19T07:53:39.350Z,94.40
2023-02-19T07:56:08.283Z,94.10
2023-02-19T07:58:35.736Z,93.90
2023-02-19T08:01:12.385Z,94.00
2023-02-19T08:03:40.255Z,94.10
2023-02-19T08:06:08.019Z,94.10
2023-02-19T08:08:34.965Z,94.30
2023-02-19T08:11:22.531Z,94.10
2023-02-19T08:13:52.404Z,94.10
2023-02-19T08:16:29.741Z,94.10
2023-02-19T08:19:00.523Z,94.30
2023-02-19T08:21:27.658Z,94.10
2023-02-19T08:23:54.684Z,94.30
2023-02-19T08:26:21.739Z,94.40
2023-02-19T08:28:49.332Z,94.50
2023-02-19T08:31:16.421Z,94.50
2023-02-19T08:33:43.405Z,94.20
2023-02-19T08:36:11.515Z,94.40
2023-02-19T08:38:39.001Z,94.50
2023-02-19T08:41:12.162Z,94.70
2023-02-19T08:43:40.142Z,94.50
2023-02-19T08:46:10.448Z,94.10
2023-02-19T08:48:39.020Z,94.10
2023-02-19T08:51:09.427Z,94.20
2023-02-19T08:53:41.090Z,93.80
2023-02-19T08:56:13.780Z,93.60
2023-02-19T08:58:41.727Z,93.40
2023-02-19T09:01:15.560Z,93.40
2023-02-19T09:03:43.168Z,93.20
2023-02-19T09:06:19.500Z,93.30
2023-02-19T09:08:47.054Z,93.60
2023-02-19T09:11:14.740Z,93.20
2023-02-19T09:13:42.131Z,92.80
2023-02-19T14:57:41.183Z,77.60
2023-02-19T15:00:26.612Z,78.30
2023-02-19T15:02:56.895Z,80.40
2023-02-19T15:05:30.332Z,78.30
2023-02-19T15:08:03.275Z,79.90
2023-02-19T15:10:33.693Z,79.40
2023-02-19T15:13:05.057Z,78.50
2023-02-19T15:15:36.610Z,78.20
2023-02-19T15:18:05.620Z,78.70
2023-02-19T15:20:38.170Z,78.40
2023-02-19T15:23:07.575Z,77.60
2023-02-19T15:25:37.993Z,79.30
2023-02-19T15:28:23.647Z,79.90
2023-02-19T15:31:11.763Z,78.20
2023-02-19T15:33:39.047Z,76.90
2023-02-19T15:36:08.345Z,77.30
2023-02-19T15:38:35.653Z,78.10
2023-02-19T15:41:02.965Z,78.00
2023-02-19T15:43:44.624Z,75.80
2023-02-19T15:46:21.310Z,74.00
2023-02-19T15:49:06.255Z,77.30
2023-02-19T15:51:55.543Z,78.40
2023-02-19T15:54:31.646Z,78.40
2023-02-19T15:57:04.343Z,75.40
2023-02-19T15:59:47.005Z,78.90
2023-02-19T16:02:15.809Z,75.40
2023-02-19T16:04:44.858Z,74.00
2023-02-19T16:07:34.934Z,76.20
2023-02-19T16:10:23.942Z,78.10
2023-02-19T16:12:58.718Z,77.90
2023-02-19T16:15:27.297Z,78.50
2023-02-19T16:17:55.142Z,80.80
2023-02-19T16:20:27.609Z,80.50
2023-02-19T16:23:02.212Z,81.50
2023-02-19T16:25:44.338Z,82.10
2023-02-19T16:28:23.097Z,79.30
2023-02-19T16:31:07.483Z,79.80
2023-02-19T16:33:50.489Z,80.40
2023-02-19T16:36:36.003Z,80.70
2023-02-19T16:39:09.374Z,81.20
2023-02-19T16:41:50.946Z,81.20
2023-02-19T16:44:20.946Z,81.40
2023-02-19T16:46:53.211Z,81.50
2023-02-19T16:49:21.077Z,80.80
2023-02-19T16:51:48.208Z,80.00
2023-02-19T16:54:15.289Z,80.50
2023-02-19T16:56:42.272Z,81.20
2023-02-19T16:59:09.296Z,82.00
2023-02-19T17:01:37.152Z,82.40
2023-02-19T17:04:08.221Z,82.60
2023-02-19T17:06:38.024Z,83.20
2023-02-19T17:09:06.691Z,83.70
2023-02-19T17:11:33.703Z,85.00
2023-02-19T17:14:01.717Z,83.90
2023-02-19T17:16:31.939Z,84.00
2023-02-19T17:18:59.061Z,83.80
2023-02-19T17:21:29.013Z,84.80
2023-02-19T17:23:59.644Z,84.90
2023-02-19T17:26:29.046Z,85.20
2023-02-19T17:29:00.473Z,84.90
2023-02-19T17:31:28.135Z,85.60
2023-02-19T17:33:55.546Z,85.70
2023-02-19T17:36:27.010Z,86.30
2023-02-19T17:38:54.648Z,85.70
2023-02-19T17:41:21.617Z,85.80
2023-02-19T17:43:50.516Z,85.50
2023-02-19T17:46:19.274Z,86.00
2023-02-19T17:48:46.533Z,85.90
2023-02-19T17:51:14.064Z,86.10
2023-02-19T17:53:41.774Z,86.70
2023-02-19T17:56:08.929Z,86.80
2023-02-19T17:58:35.975Z,86.90
2023-02-19T18:01:03.035Z,86.90
2023-02-19T18:03:30.271Z,87.70
2023-02-19T18:05:57.326Z,87.70
2023-02-19T18:08:24.898Z,87.80
2023-02-19T18:10:52.812Z,88.00
2023-02-19T18:13:19.842Z,88.00
2023-02-19T18:15:46.886Z,88.80
2023-02-19T18:18:13.938Z,88.60
2023-02-19T18:20:41.326Z,89.00
2023-02-19T18:23:08.333Z,88.70
2023-02-19T18:25:35.293Z,88.90
2023-02-19T18:28:02.488Z,89.70
2023-02-19T18:30:30.070Z,90.10
2023-02-19T18:32:58.291Z,90.20
2023-02-19T18:35:25.280Z,90.30
2023-02-19T18:37:56.214Z,90.60
2023-02-19T18:40:26.069Z,90.00
2023-02-19T18:42:53.262Z,90.50
2023-02-19T18:45:20.222Z,90.30
2023-02-19T18:47:49.363Z,90.00
2023-02-19T18:50:17.932Z,90.20
2023-02-19T18:52:45.091Z,90.60
2023-02-19T18:55:12.512Z,90.80
2023-02-19T18:57:39.648Z,90.90
2023-02-19T19:00:08.131Z,97.90
2023-02-19T19:02:48.281Z,97.70
2023-02-19T19:05:18.563Z,96.20
2023-02-19T19:07:45.571Z,90.10
2023-02-19T19:10:12.568Z,88.90
2023-02-19T19:12:39.537Z,89.00
2023-02-19T19:15:06.747Z,89.50
2023-02-19T19:17:33.921Z,90.00
2023-02-19T19:20:00.937Z,90.10
2023-02-19T19:22:28.980Z,90.50
2023-02-19T19:24:55.891Z,90.80
2023-02-19T19:27:22.858Z,91.10
2023-02-19T19:29:50.015Z,91.30
2023-02-19T19:32:17.152Z,91.20
2023-02-19T19:34:44.372Z,91.60
2023-02-19T19:37:12.456Z,91.80
2023-02-19T19:39:39.530Z,92.00
2023-02-19T19:42:09.054Z,92.20
2023-02-19T19:44:36.099Z,92.30
2023-02-19T19:47:03.059Z,92.70
2023-02-19T19:49:30.086Z,92.50
2023-02-19T19:52:01.306Z,92.60
2023-02-19T19:54:28.948Z,92.50
2023-02-19T19:56:55.884Z,92.50
2023-02-19T19:59:23.324Z,92.60
2023-02-19T20:01:52.342Z,92.70
2023-02-19T20:04:22.349Z,92.80
2023-02-19T20:06:49.940Z,92.80
2023-02-19T20:09:18.413Z,93.00
2023-02-19T20:11:50.375Z,93.10
2023-02-19T20:14:19.128Z,92.90
2023-02-19T20:16:47.730Z,93.00
2023-02-19T20:19:15.949Z,93.00
2023-02-19T20:21:51.973Z,92.80
2023-02-19T20:24:26.033Z,93.00
2023-02-19T20:26:58.791Z,93.10
2023-02-19T20:29:31.655Z,93.20
2023-02-19T20:32:00.415Z,93.20
2023-02-19T20:34:28.064Z,93.40
2023-02-19T20:36:55.502Z,93.40
2023-02-19T20:39:23.145Z,93.70
2023-02-19T20:41:52.211Z,93.50
2023-02-19T20:44:19.924Z,93.60
2023-02-19T20:46:52.001Z,93.30
2023-02-19T20:49:22.090Z,93.40
2023-02-19T20:51:55.165Z,93.60
2023-02-19T20:54:28.733Z,93.40
2023-02-19T20:56:57.907Z,93.50
2023-02-19T20:59:27.501Z,93.70
2023-02-19T21:01:57.827Z,93.90
2023-02-19T21:04:25.333Z,93.90
2023-02-19T21:06:52.466Z,94.30
2023-02-19T21:09:23.570Z,94.30
2023-02-19T21:11:53.217Z,94.10
2023-02-19T21:14:20.443Z,94.10
2023-02-19T21:16:47.615Z,94.00
2023-02-19T21:19:14.665Z,94.10
2023-02-19T21:21:41.653Z,94.00
2023-02-19T21:24:12.313Z,94.20
2023-02-19T21:26:41.628Z,94.40
2023-02-19T21:29:13.324Z,94.40
2023-02-19T21:31:46.237Z,94.80
2023-02-19T21:34:16.704Z,94.50
2023-02-19T21:36:43.823Z,94.20
2023-02-19T21:39:13.509Z,94.00
2023-02-19T21:41:40.636Z,94.10
2023-02-19T21:44:07.669Z,94.10
2023-02-19T21:46:34.994Z,94.40
2023-02-19T21:49:02.960Z,94.20
2023-02-19T21:51:32.920Z,94.40
2023-02-19T21:54:00.709Z,94.90
2023-02-19T21:56:29.852Z,95.10
2023-02-19T21:58:57.544Z,95.30
2023-02-19T22:01:33.782Z,95.30
2023-02-19T22:04:01.024Z,95.10
2023-02-19T22:06:30.124Z,95.10
2023-02-19T22:08:57.887Z,95.10
2023-02-19T22:11:25.022Z,95.10
2023-02-19T22:13:53.509Z,95.10
2023-02-19T22:16:20.793Z,95.10
2023-02-19T22:18:54.156Z,94.90
2023-02-19T22:21:22.367Z,94.70
2023-02-19T22:23:51.334Z,94.60
2023-02-19T22:26:22.574Z,94.50
2023-02-19T22:28:49.901Z,94.60
2023-02-19T22:31:18.904Z,94.70
2023-02-19T22:33:46.618Z,95.00
2023-02-19T22:36:28.047Z,95.20
2023-02-19T22:38:55.374Z,95.10
2023-02-19T22:41:23.035Z,95.20
2023-02-19T22:43:50.726Z,95.10
2023-02-19T22:46:20.039Z,95.20
2023-02-19T22:48:47.401Z,95.10
2023-02-19T22:51:16.561Z,95.00
2023-02-19T22:53:48.784Z,95.00
2023-02-19T22:56:17.101Z,94.70
2023-02-19T22:58:44.944Z,94.50
2023-02-19T23:01:14.577Z,94.50
2023-02-19T23:03:52.991Z,94.50
2023-02-19T23:06:29.502Z,94.60
2023-02-19T23:08:58.618Z,94.60
2023-02-19T23:11:34.370Z,94.60
2023-02-19T23:14:04.714Z,94.70
2023-02-19T23:16:36.026Z,94.80
2023-02-19T23:19:05.366Z,95.00
2023-02-19T23:21:33.219Z,95.10
2023-02-19T23:24:00.655Z,94.90
2023-02-19T23:26:27.773Z,94.90
2023-02-19T23:28:55.053Z,94.80
